sensor_id;sensor_type;location;lat;lon;timestamp;P1;durP1;ratioP1;P2;durP2;ratioP2
20482;SDS011;10400;53.198;6.592;2023-03-23T00:01:17;4.95;;;4.40;;
20482;SDS011;10400;53.198;6.592;2023-03-23T00:03:47;9.40;;;5.90;;
20482;SDS011;10400;53.198;6.592;2023-03-23T00:06:15;8.52;;;6.45;;
20482;SDS011;10400;53.198;6.592;2023-03-23T00:08:45;9.85;;;6.93;;
20482;SDS011;10400;53.198;6.592;2023-03-23T00:11:13;10.02;;;7.88;;
20482;SDS011;10400;53.198;6.592;2023-03-23T00:13:41;12.93;;;9.88;;
20482;SDS011;10400;53.198;6.592;2023-03-23T00:16:07;13.73;;;10.27;;
20482;SDS011;10400;53.198;6.592;2023-03-23T00:18:42;17.10;;;11.98;;
20482;SDS011;10400;53.198;6.592;2023-03-23T00:21:21;16.85;;;12.00;;
20482;SDS011;10400;53.198;6.592;2023-03-23T00:24:08;17.08;;;12.88;;
20482;SDS011;10400;53.198;6.592;2023-03-23T00:26:36;21.80;;;12.90;;
20482;SDS011;10400;53.198;6.592;2023-03-23T00:29:05;22.63;;;13.38;;
20482;SDS011;10400;53.198;6.592;2023-03-23T00:31:32;16.60;;;13.35;;
20482;SDS011;10400;53.198;6.592;2023-03-23T00:34:00;15.95;;;13.38;;
20482;SDS011;10400;53.198;6.592;2023-03-23T00:36:29;21.20;;;13.80;;
20482;SDS011;10400;53.198;6.592;2023-03-23T00:38:56;21.33;;;14.27;;
20482;SDS011;10400;53.198;6.592;2023-03-23T00:41:23;21.00;;;14.55;;
20482;SDS011;10400;53.198;6.592;2023-03-23T00:43:53;16.23;;;13.65;;
20482;SDS011;10400;53.198;6.592;2023-03-23T00:46:19;21.45;;;14.32;;
20482;SDS011;10400;53.198;6.592;2023-03-23T00:48:45;19.45;;;14.20;;
20482;SDS011;10400;53.198;6.592;2023-03-23T00:51:11;19.45;;;13.68;;
20482;SDS011;10400;53.198;6.592;2023-03-23T00:53:38;22.88;;;14.45;;
20482;SDS011;10400;53.198;6.592;2023-03-23T00:56:05;17.13;;;12.75;;
20482;SDS011;10400;53.198;6.592;2023-03-23T00:58:31;17.20;;;12.10;;
20482;SDS011;10400;53.198;6.592;2023-03-23T01:00:57;18.67;;;11.45;;
20482;SDS011;10400;53.198;6.592;2023-03-23T01:03:22;18.85;;;10.13;;
20482;SDS011;10400;53.198;6.592;2023-03-23T01:05:50;13.52;;;8.30;;
20482;SDS011;10400;53.198;6.592;2023-03-23T01:08:17;7.15;;;4.43;;
20482;SDS011;10400;53.198;6.592;2023-03-23T01:10:44;7.60;;;3.65;;
20482;SDS011;10400;53.198;6.592;2023-03-23T01:13:10;5.65;;;3.67;;
20482;SDS011;10400;53.198;6.592;2023-03-23T01:15:37;6.32;;;3.55;;
20482;SDS011;10400;53.198;6.592;2023-03-23T01:18:03;6.13;;;3.40;;
20482;SDS011;10400;53.198;6.592;2023-03-23T01:20:29;6.43;;;3.33;;
20482;SDS011;10400;53.198;6.592;2023-03-23T01:22:56;5.63;;;3.58;;
20482;SDS011;10400;53.198;6.592;2023-03-23T01:25:31;6.22;;;3.17;;
20482;SDS011;10400;53.198;6.592;2023-03-23T01:28:00;5.90;;;3.63;;
20482;SDS011;10400;53.198;6.592;2023-03-23T01:30:26;3.97;;;3.38;;
20482;SDS011;10400;53.198;6.592;2023-03-23T01:32:52;5.53;;;4.03;;
20482;SDS011;10400;53.198;6.592;2023-03-23T01:35:19;4.30;;;3.55;;
20482;SDS011;10400;53.198;6.592;2023-03-23T01:37:44;5.75;;;4.10;;
20482;SDS011;10400;53.198;6.592;2023-03-23T01:40:12;8.38;;;5.15;;
20482;SDS011;10400;53.198;6.592;2023-03-23T01:42:38;7.65;;;5.30;;
20482;SDS011;10400;53.198;6.592;2023-03-23T01:48:20;7.63;;;5.60;;
20482;SDS011;10400;53.198;6.592;2023-03-23T01:53:53;10.88;;;7.13;;
20482;SDS011;10400;53.198;6.592;2023-03-23T01:56:23;13.38;;;7.38;;
20482;SDS011;10400;53.198;6.592;2023-03-23T01:58:55;11.55;;;6.68;;
20482;SDS011;10400;53.198;6.592;2023-03-23T02:01:21;15.65;;;7.22;;
20482;SDS011;10400;53.198;6.592;2023-03-23T02:03:50;13.52;;;7.13;;
20482;SDS011;10400;53.198;6.592;2023-03-23T02:06:17;12.60;;;7.13;;
20482;SDS011;10400;53.198;6.592;2023-03-23T02:08:43;13.40;;;7.30;;
20482;SDS011;10400;53.198;6.592;2023-03-23T02:11:17;18.90;;;6.60;;
20482;SDS011;10400;53.198;6.592;2023-03-23T02:13:44;10.25;;;6.05;;
20482;SDS011;10400;53.198;6.592;2023-03-23T02:18:53;10.68;;;6.65;;
20482;SDS011;10400;53.198;6.592;2023-03-23T02:24:18;9.60;;;6.30;;
20482;SDS011;10400;53.198;6.592;2023-03-23T02:27:05;11.88;;;6.05;;
20482;SDS011;10400;53.198;6.592;2023-03-23T02:30:56;10.18;;;6.38;;
20482;SDS011;10400;53.198;6.592;2023-03-23T02:33:11;9.90;;;5.88;;
20482;SDS011;10400;53.198;6.592;2023-03-23T02:35:41;13.43;;;5.20;;
20482;SDS011;10400;53.198;6.592;2023-03-23T02:38:28;11.80;;;5.25;;
20482;SDS011;10400;53.198;6.592;2023-03-23T02:41:00;8.52;;;4.95;;
20482;SDS011;10400;53.198;6.592;2023-03-23T02:43:30;9.18;;;5.13;;
20482;SDS011;10400;53.198;6.592;2023-03-23T02:45:59;9.27;;;5.60;;
20482;SDS011;10400;53.198;6.592;2023-03-23T02:48:28;11.27;;;5.43;;
20482;SDS011;10400;53.198;6.592;2023-03-23T02:50:55;8.82;;;5.13;;
20482;SDS011;10400;53.198;6.592;2023-03-23T02:53:22;7.88;;;4.78;;
20482;SDS011;10400;53.198;6.592;2023-03-23T02:55:50;10.30;;;5.30;;
20482;SDS011;10400;53.198;6.592;2023-03-23T02:58:20;10.45;;;4.93;;
20482;SDS011;10400;53.198;6.592;2023-03-23T03:00:48;11.60;;;5.18;;
20482;SDS011;10400;53.198;6.592;2023-03-23T03:03:15;11.93;;;4.50;;
20482;SDS011;10400;53.198;6.592;2023-03-23T03:10:55;8.55;;;4.25;;
20482;SDS011;10400;53.198;6.592;2023-03-23T03:16:14;7.85;;;4.47;;
20482;SDS011;10400;53.198;6.592;2023-03-23T03:21:41;8.43;;;3.85;;
20482;SDS011;10400;53.198;6.592;2023-03-23T03:24:09;6.15;;;3.30;;
20482;SDS011;10400;53.198;6.592;2023-03-23T03:26:40;9.13;;;4.35;;
20482;SDS011;10400;53.198;6.592;2023-03-23T03:29:12;9.65;;;3.83;;
20482;SDS011;10400;53.198;6.592;2023-03-23T03:31:42;6.32;;;3.92;;
20482;SDS011;10400;53.198;6.592;2023-03-23T03:34:11;9.57;;;3.63;;
20482;SDS011;10400;53.198;6.592;2023-03-23T03:36:37;7.95;;;3.80;;
20482;SDS011;10400;53.198;6.592;2023-03-23T03:39:06;7.63;;;3.47;;
20482;SDS011;10400;53.198;6.592;2023-03-23T03:41:34;8.13;;;3.80;;
20482;SDS011;10400;53.198;6.592;2023-03-23T03:44:01;5.70;;;3.63;;
20482;SDS011;10400;53.198;6.592;2023-03-23T03:46:31;8.23;;;3.75;;
20482;SDS011;10400;53.198;6.592;2023-03-23T03:48:58;8.35;;;4.03;;
20482;SDS011;10400;53.198;6.592;2023-03-23T03:51:25;7.38;;;3.50;;
20482;SDS011;10400;53.198;6.592;2023-03-23T03:53:52;6.65;;;3.90;;
20482;SDS011;10400;53.198;6.592;2023-03-23T03:56:18;5.85;;;3.80;;
20482;SDS011;10400;53.198;6.592;2023-03-23T03:58:46;11.88;;;4.13;;
20482;SDS011;10400;53.198;6.592;2023-03-23T04:01:13;7.50;;;3.92;;
20482;SDS011;10400;53.198;6.592;2023-03-23T04:03:41;11.30;;;3.80;;
20482;SDS011;10400;53.198;6.592;2023-03-23T04:06:07;6.95;;;3.25;;
20482;SDS011;10400;53.198;6.592;2023-03-23T04:08:34;7.18;;;2.88;;
20482;SDS011;10400;53.198;6.592;2023-03-23T04:11:02;7.75;;;3.05;;
20482;SDS011;10400;53.198;6.592;2023-03-23T04:13:29;7.35;;;3.10;;
20482;SDS011;10400;53.198;6.592;2023-03-23T04:15:55;7.50;;;2.15;;
20482;SDS011;10400;53.198;6.592;2023-03-23T04:18:20;4.13;;;1.50;;
20482;SDS011;10400;53.198;6.592;2023-03-23T04:20:47;2.60;;;1.60;;
20482;SDS011;10400;53.198;6.592;2023-03-23T04:23:17;1.75;;;0.90;;
20482;SDS011;10400;53.198;6.592;2023-03-23T04:25:48;3.40;;;1.10;;
20482;SDS011;10400;53.198;6.592;2023-03-23T04:28:16;2.03;;;0.93;;
20482;SDS011;10400;53.198;6.592;2023-03-23T04:30:43;2.72;;;1.25;;
20482;SDS011;10400;53.198;6.592;2023-03-23T04:33:10;1.85;;;1.10;;
20482;SDS011;10400;53.198;6.592;2023-03-23T04:35:40;3.20;;;1.52;;
20482;SDS011;10400;53.198;6.592;2023-03-23T04:38:06;3.50;;;1.45;;
20482;SDS011;10400;53.198;6.592;2023-03-23T04:40:37;3.40;;;1.50;;
20482;SDS011;10400;53.198;6.592;2023-03-23T04:43:04;5.40;;;1.83;;
20482;SDS011;10400;53.198;6.592;2023-03-23T04:45:31;3.70;;;1.30;;
20482;SDS011;10400;53.198;6.592;2023-03-23T04:47:58;2.90;;;1.20;;
20482;SDS011;10400;53.198;6.592;2023-03-23T04:50:26;4.10;;;2.22;;
20482;SDS011;10400;53.198;6.592;2023-03-23T04:52:56;3.15;;;1.60;;
20482;SDS011;10400;53.198;6.592;2023-03-23T04:55:23;4.30;;;1.20;;
20482;SDS011;10400;53.198;6.592;2023-03-23T04:57:51;6.25;;;1.70;;
20482;SDS011;10400;53.198;6.592;2023-03-23T05:00:17;5.32;;;2.05;;
20482;SDS011;10400;53.198;6.592;2023-03-23T05:02:43;8.40;;;1.92;;
20482;SDS011;10400;53.198;6.592;2023-03-23T05:05:11;5.97;;;1.63;;
20482;SDS011;10400;53.198;6.592;2023-03-23T05:07:38;5.68;;;1.95;;
20482;SDS011;10400;53.198;6.592;2023-03-23T05:10:05;12.20;;;2.38;;
20482;SDS011;10400;53.198;6.592;2023-03-23T05:12:32;8.95;;;2.20;;
20482;SDS011;10400;53.198;6.592;2023-03-23T05:14:58;7.68;;;1.95;;
20482;SDS011;10400;53.198;6.592;2023-03-23T05:17:24;9.73;;;2.53;;
20482;SDS011;10400;53.198;6.592;2023-03-23T05:19:51;8.70;;;2.78;;
20482;SDS011;10400;53.198;6.592;2023-03-23T05:22:17;9.15;;;3.13;;
20482;SDS011;10400;53.198;6.592;2023-03-23T05:24:45;7.70;;;3.17;;
20482;SDS011;10400;53.198;6.592;2023-03-23T05:27:11;9.77;;;3.13;;
20482;SDS011;10400;53.198;6.592;2023-03-23T05:29:37;12.38;;;3.28;;
20482;SDS011;10400;53.198;6.592;2023-03-23T05:32:05;15.18;;;3.38;;
20482;SDS011;10400;53.198;6.592;2023-03-23T05:34:33;8.25;;;3.00;;
20482;SDS011;10400;53.198;6.592;2023-03-23T05:37:00;10.68;;;3.20;;
20482;SDS011;10400;53.198;6.592;2023-03-23T05:39:26;10.30;;;3.03;;
20482;SDS011;10400;53.198;6.592;2023-03-23T05:41:53;10.82;;;3.10;;
20482;SDS011;10400;53.198;6.592;2023-03-23T05:44:18;17.33;;;3.50;;
20482;SDS011;10400;53.198;6.592;2023-03-23T05:46:45;14.68;;;2.92;;
20482;SDS011;10400;53.198;6.592;2023-03-23T05:49:11;11.50;;;3.45;;
20482;SDS011;10400;53.198;6.592;2023-03-23T05:51:37;12.85;;;2.65;;
20482;SDS011;10400;53.198;6.592;2023-03-23T05:54:03;15.80;;;2.78;;
20482;SDS011;10400;53.198;6.592;2023-03-23T05:56:28;16.77;;;3.65;;
20482;SDS011;10400;53.198;6.592;2023-03-23T05:58:56;15.20;;;3.58;;
20482;SDS011;10400;53.198;6.592;2023-03-23T06:01:22;19.13;;;3.60;;
20482;SDS011;10400;53.198;6.592;2023-03-23T06:03:49;17.05;;;3.33;;
20482;SDS011;10400;53.198;6.592;2023-03-23T06:06:18;18.75;;;3.33;;
20482;SDS011;10400;53.198;6.592;2023-03-23T06:08:45;19.25;;;3.20;;
20482;SDS011;10400;53.198;6.592;2023-03-23T06:11:11;17.17;;;3.22;;
20482;SDS011;10400;53.198;6.592;2023-03-23T06:13:38;18.23;;;2.95;;
20482;SDS011;10400;53.198;6.592;2023-03-23T06:16:04;18.85;;;3.65;;
20482;SDS011;10400;53.198;6.592;2023-03-23T06:18:30;18.83;;;3.70;;
20482;SDS011;10400;53.198;6.592;2023-03-23T06:20:58;13.45;;;3.03;;
20482;SDS011;10400;53.198;6.592;2023-03-23T06:23:25;19.27;;;3.30;;
20482;SDS011;10400;53.198;6.592;2023-03-23T06:25:58;20.25;;;3.05;;
20482;SDS011;10400;53.198;6.592;2023-03-23T06:28:27;18.05;;;3.20;;
20482;SDS011;10400;53.198;6.592;2023-03-23T06:30:53;18.55;;;3.70;;
20482;SDS011;10400;53.198;6.592;2023-03-23T06:33:19;15.20;;;3.30;;
20482;SDS011;10400;53.198;6.592;2023-03-23T06:35:45;12.38;;;2.70;;
20482;SDS011;10400;53.198;6.592;2023-03-23T06:38:10;22.33;;;3.75;;
20482;SDS011;10400;53.198;6.592;2023-03-23T06:40:37;14.95;;;3.30;;
20482;SDS011;10400;53.198;6.592;2023-03-23T06:43:02;17.65;;;3.10;;
20482;SDS011;10400;53.198;6.592;2023-03-23T06:45:29;15.13;;;3.15;;
20482;SDS011;10400;53.198;6.592;2023-03-23T06:47:55;16.55;;;2.35;;
20482;SDS011;10400;53.198;6.592;2023-03-23T06:50:22;11.75;;;2.60;;
20482;SDS011;10400;53.198;6.592;2023-03-23T06:52:48;13.40;;;2.25;;
20482;SDS011;10400;53.198;6.592;2023-03-23T06:55:15;10.98;;;2.15;;
20482;SDS011;10400;53.198;6.592;2023-03-23T06:57:42;11.73;;;2.15;;
20482;SDS011;10400;53.198;6.592;2023-03-23T07:00:08;9.70;;;2.33;;
20482;SDS011;10400;53.198;6.592;2023-03-23T07:02:37;9.77;;;2.28;;
20482;SDS011;10400;53.198;6.592;2023-03-23T07:05:03;11.88;;;2.35;;
20482;SDS011;10400;53.198;6.592;2023-03-23T07:07:29;10.18;;;2.00;;
20482;SDS011;10400;53.198;6.592;2023-03-23T07:09:55;7.93;;;2.00;;
20482;SDS011;10400;53.198;6.592;2023-03-23T07:12:21;13.45;;;2.35;;
20482;SDS011;10400;53.198;6.592;2023-03-23T07:14:47;14.07;;;2.60;;
20482;SDS011;10400;53.198;6.592;2023-03-23T07:17:13;12.55;;;2.60;;
20482;SDS011;10400;53.198;6.592;2023-03-23T07:19:39;11.57;;;2.80;;
20482;SDS011;10400;53.198;6.592;2023-03-23T07:22:05;11.48;;;2.35;;
20482;SDS011;10400;53.198;6.592;2023-03-23T07:24:32;13.65;;;3.25;;
20482;SDS011;10400;53.198;6.592;2023-03-23T07:26:58;15.75;;;2.97;;
20482;SDS011;10400;53.198;6.592;2023-03-23T07:29:24;17.90;;;3.63;;
20482;SDS011;10400;53.198;6.592;2023-03-23T07:31:50;14.60;;;3.17;;
20482;SDS011;10400;53.198;6.592;2023-03-23T07:34:17;17.30;;;3.65;;
20482;SDS011;10400;53.198;6.592;2023-03-23T07:36:44;20.10;;;4.05;;
20482;SDS011;10400;53.198;6.592;2023-03-23T07:39:10;20.52;;;3.78;;
20482;SDS011;10400;53.198;6.592;2023-03-23T07:41:37;20.17;;;3.50;;
20482;SDS011;10400;53.198;6.592;2023-03-23T07:44:03;21.00;;;3.65;;
20482;SDS011;10400;53.198;6.592;2023-03-23T07:46:29;25.30;;;3.70;;
20482;SDS011;10400;53.198;6.592;2023-03-23T07:48:55;19.73;;;3.92;;
20482;SDS011;10400;53.198;6.592;2023-03-23T07:51:21;16.73;;;3.53;;
20482;SDS011;10400;53.198;6.592;2023-03-23T07:53:48;25.00;;;4.13;;
20482;SDS011;10400;53.198;6.592;2023-03-23T07:56:15;20.05;;;3.90;;
20482;SDS011;10400;53.198;6.592;2023-03-23T07:58:44;23.17;;;4.30;;
20482;SDS011;10400;53.198;6.592;2023-03-23T08:01:12;25.35;;;4.72;;
20482;SDS011;10400;53.198;6.592;2023-03-23T08:03:38;18.63;;;3.55;;
20482;SDS011;10400;53.198;6.592;2023-03-23T08:06:04;18.65;;;4.18;;
20482;SDS011;10400;53.198;6.592;2023-03-23T08:08:30;23.85;;;4.03;;
20482;SDS011;10400;53.198;6.592;2023-03-23T08:10:57;22.95;;;4.22;;
20482;SDS011;10400;53.198;6.592;2023-03-23T08:13:23;21.27;;;4.47;;
20482;SDS011;10400;53.198;6.592;2023-03-23T08:15:49;22.33;;;4.00;;
20482;SDS011;10400;53.198;6.592;2023-03-23T08:18:16;22.70;;;4.28;;
20482;SDS011;10400;53.198;6.592;2023-03-23T08:20:42;26.50;;;4.75;;
20482;SDS011;10400;53.198;6.592;2023-03-23T08:23:09;29.40;;;4.13;;
20482;SDS011;10400;53.198;6.592;2023-03-23T08:25:35;26.52;;;4.70;;
20482;SDS011;10400;53.198;6.592;2023-03-23T08:28:01;23.25;;;4.97;;
20482;SDS011;10400;53.198;6.592;2023-03-23T08:30:28;24.70;;;4.85;;
20482;SDS011;10400;53.198;6.592;2023-03-23T08:32:55;25.23;;;4.53;;
20482;SDS011;10400;53.198;6.592;2023-03-23T08:35:22;29.48;;;4.95;;
20482;SDS011;10400;53.198;6.592;2023-03-23T08:37:48;24.85;;;4.15;;
20482;SDS011;10400;53.198;6.592;2023-03-23T08:40:16;27.85;;;4.82;;
20482;SDS011;10400;53.198;6.592;2023-03-23T08:42:44;28.35;;;4.45;;
20482;SDS011;10400;53.198;6.592;2023-03-23T08:45:11;21.65;;;3.80;;
20482;SDS011;10400;53.198;6.592;2023-03-23T08:47:39;29.65;;;5.13;;
20482;SDS011;10400;53.198;6.592;2023-03-23T08:50:07;23.48;;;4.47;;
20482;SDS011;10400;53.198;6.592;2023-03-23T08:52:36;27.85;;;4.75;;
20482;SDS011;10400;53.198;6.592;2023-03-23T08:55:02;24.90;;;3.88;;
20482;SDS011;10400;53.198;6.592;2023-03-23T08:57:28;28.30;;;4.80;;
20482;SDS011;10400;53.198;6.592;2023-03-23T08:59:54;25.70;;;4.40;;
20482;SDS011;10400;53.198;6.592;2023-03-23T09:02:24;21.08;;;4.32;;
20482;SDS011;10400;53.198;6.592;2023-03-23T09:04:51;22.50;;;4.65;;
20482;SDS011;10400;53.198;6.592;2023-03-23T09:07:18;30.00;;;4.85;;
20482;SDS011;10400;53.198;6.592;2023-03-23T09:09:43;30.20;;;5.10;;
20482;SDS011;10400;53.198;6.592;2023-03-23T09:12:10;22.02;;;4.95;;
20482;SDS011;10400;53.198;6.592;2023-03-23T09:14:36;26.30;;;4.50;;
20482;SDS011;10400;53.198;6.592;2023-03-23T09:17:02;25.77;;;4.72;;
20482;SDS011;10400;53.198;6.592;2023-03-23T09:19:29;22.52;;;4.43;;
20482;SDS011;10400;53.198;6.592;2023-03-23T09:22:00;24.27;;;4.30;;
20482;SDS011;10400;53.198;6.592;2023-03-23T09:24:26;28.08;;;4.60;;
20482;SDS011;10400;53.198;6.592;2023-03-23T09:26:52;24.58;;;4.72;;
20482;SDS011;10400;53.198;6.592;2023-03-23T09:29:18;23.40;;;4.38;;
20482;SDS011;10400;53.198;6.592;2023-03-23T09:31:44;19.73;;;4.32;;
20482;SDS011;10400;53.198;6.592;2023-03-23T09:34:11;28.83;;;4.78;;
20482;SDS011;10400;53.198;6.592;2023-03-23T09:36:38;30.95;;;4.60;;
20482;SDS011;10400;53.198;6.592;2023-03-23T09:39:05;21.33;;;4.32;;
20482;SDS011;10400;53.198;6.592;2023-03-23T09:45:09;24.00;;;4.82;;
20482;SDS011;10400;53.198;6.592;2023-03-23T09:47:18;25.48;;;4.75;;
20482;SDS011;10400;53.198;6.592;2023-03-23T09:49:57;21.92;;;4.25;;
20482;SDS011;10400;53.198;6.592;2023-03-23T09:52:43;30.40;;;4.35;;
20482;SDS011;10400;53.198;6.592;2023-03-23T09:55:16;27.10;;;4.43;;
20482;SDS011;10400;53.198;6.592;2023-03-23T09:57:51;25.45;;;4.32;;
20482;SDS011;10400;53.198;6.592;2023-03-23T10:00:34;29.88;;;5.32;;
20482;SDS011;10400;53.198;6.592;2023-03-23T10:05:38;21.92;;;4.55;;
20482;SDS011;10400;53.198;6.592;2023-03-23T10:08:16;20.90;;;3.72;;
20482;SDS011;10400;53.198;6.592;2023-03-23T10:13:21;22.20;;;4.05;;
20482;SDS011;10400;53.198;6.592;2023-03-23T10:15:59;19.50;;;3.88;;
20482;SDS011;10400;53.198;6.592;2023-03-23T10:18:37;22.83;;;4.70;;
20482;SDS011;10400;53.198;6.592;2023-03-23T10:21:18;21.05;;;3.72;;
20482;SDS011;10400;53.198;6.592;2023-03-23T10:23:57;26.30;;;3.95;;
20482;SDS011;10400;53.198;6.592;2023-03-23T10:26:35;27.05;;;4.18;;
20482;SDS011;10400;53.198;6.592;2023-03-23T10:31:33;24.92;;;4.00;;
20482;SDS011;10400;53.198;6.592;2023-03-23T10:34:03;19.60;;;3.80;;
20482;SDS011;10400;53.198;6.592;2023-03-23T10:36:50;26.02;;;4.38;;
20482;SDS011;10400;53.198;6.592;2023-03-23T10:39:38;25.27;;;4.30;;
20482;SDS011;10400;53.198;6.592;2023-03-23T10:42:10;26.15;;;4.60;;
20482;SDS011;10400;53.198;6.592;2023-03-23T10:44:36;26.20;;;4.80;;
20482;SDS011;10400;53.198;6.592;2023-03-23T10:47:05;24.58;;;5.32;;
20482;SDS011;10400;53.198;6.592;2023-03-23T10:49:41;22.75;;;3.90;;
20482;SDS011;10400;53.198;6.592;2023-03-23T10:52:12;18.95;;;3.58;;
20482;SDS011;10400;53.198;6.592;2023-03-23T10:55:17;24.20;;;4.53;;
20482;SDS011;10400;53.198;6.592;2023-03-23T10:57:58;19.05;;;4.03;;
20482;SDS011;10400;53.198;6.592;2023-03-23T11:00:29;17.73;;;3.40;;
20482;SDS011;10400;53.198;6.592;2023-03-23T11:08:13;18.83;;;3.30;;
20482;SDS011;10400;53.198;6.592;2023-03-23T11:10:42;20.23;;;3.75;;
20482;SDS011;10400;53.198;6.592;2023-03-23T11:13:14;20.63;;;4.07;;
20482;SDS011;10400;53.198;6.592;2023-03-23T11:15:42;19.02;;;3.00;;
20482;SDS011;10400;53.198;6.592;2023-03-23T11:18:12;17.45;;;3.30;;
20482;SDS011;10400;53.198;6.592;2023-03-23T11:20:48;13.60;;;2.90;;
20482;SDS011;10400;53.198;6.592;2023-03-23T11:25:52;17.42;;;3.30;;
20482;SDS011;10400;53.198;6.592;2023-03-23T11:28:18;14.63;;;3.70;;
20482;SDS011;10400;53.198;6.592;2023-03-23T11:30:44;13.07;;;3.13;;
20482;SDS011;10400;53.198;6.592;2023-03-23T11:33:11;12.18;;;2.58;;
20482;SDS011;10400;53.198;6.592;2023-03-23T11:35:42;15.25;;;2.80;;
20482;SDS011;10400;53.198;6.592;2023-03-23T11:38:16;16.13;;;3.33;;
20482;SDS011;10400;53.198;6.592;2023-03-23T11:40:47;15.68;;;2.55;;
20482;SDS011;10400;53.198;6.592;2023-03-23T11:43:14;16.75;;;3.10;;
20482;SDS011;10400;53.198;6.592;2023-03-23T11:45:48;16.08;;;3.20;;
20482;SDS011;10400;53.198;6.592;2023-03-23T11:48:30;10.43;;;2.80;;
20482;SDS011;10400;53.198;6.592;2023-03-23T11:51:28;17.13;;;3.10;;
20482;SDS011;10400;53.198;6.592;2023-03-23T11:54:19;17.98;;;2.85;;
20482;SDS011;10400;53.198;6.592;2023-03-23T11:56:52;12.35;;;3.33;;
20482;SDS011;10400;53.198;6.592;2023-03-23T11:59:27;14.75;;;3.05;;
20482;SDS011;10400;53.198;6.592;2023-03-23T12:07:46;18.67;;;3.13;;
20482;SDS011;10400;53.198;6.592;2023-03-23T12:10:24;14.75;;;2.78;;
20482;SDS011;10400;53.198;6.592;2023-03-23T12:15:26;14.13;;;2.55;;
20482;SDS011;10400;53.198;6.592;2023-03-23T12:20:47;14.48;;;2.55;;
20482;SDS011;10400;53.198;6.592;2023-03-23T12:23:24;12.43;;;2.72;;
20482;SDS011;10400;53.198;6.592;2023-03-23T12:45:01;13.25;;;2.92;;
20482;SDS011;10400;53.198;6.592;2023-03-23T12:47:40;13.43;;;3.17;;
20482;SDS011;10400;53.198;6.592;2023-03-23T12:58:37;12.80;;;2.45;;
20482;SDS011;10400;53.198;6.592;2023-03-23T13:03:45;16.40;;;2.60;;
20482;SDS011;10400;53.198;6.592;2023-03-23T13:06:38;13.23;;;3.08;;
20482;SDS011;10400;53.198;6.592;2023-03-23T13:12:08;12.27;;;2.05;;
20482;SDS011;10400;53.198;6.592;2023-03-23T13:14:45;10.65;;;2.17;;
20482;SDS011;10400;53.198;6.592;2023-03-23T13:22:47;12.70;;;2.90;;
20482;SDS011;10400;53.198;6.592;2023-03-23T13:28:24;19.48;;;3.13;;
20482;SDS011;10400;53.198;6.592;2023-03-23T13:31:00;15.23;;;3.15;;
20482;SDS011;10400;53.198;6.592;2023-03-23T13:33:32;15.10;;;2.88;;
20482;SDS011;10400;53.198;6.592;2023-03-23T13:36:07;17.17;;;3.25;;
20482;SDS011;10400;53.198;6.592;2023-03-23T13:38:35;14.65;;;3.33;;
20482;SDS011;10400;53.198;6.592;2023-03-23T13:41:12;14.13;;;2.55;;
20482;SDS011;10400;53.198;6.592;2023-03-23T13:43:40;17.38;;;3.40;;
20482;SDS011;10400;53.198;6.592;2023-03-23T13:48:47;16.45;;;2.90;;
20482;SDS011;10400;53.198;6.592;2023-03-23T13:54:13;15.50;;;2.80;;
20482;SDS011;10400;53.198;6.592;2023-03-23T13:56:59;16.60;;;3.50;;
20482;SDS011;10400;53.198;6.592;2023-03-23T14:02:21;19.70;;;3.65;;
20482;SDS011;10400;53.198;6.592;2023-03-23T14:05:31;14.15;;;2.38;;
20482;SDS011;10400;53.198;6.592;2023-03-23T14:10:33;15.40;;;3.13;;
20482;SDS011;10400;53.198;6.592;2023-03-23T14:13:00;13.65;;;2.95;;
20482;SDS011;10400;53.198;6.592;2023-03-23T14:15:28;14.18;;;2.60;;
20482;SDS011;10400;53.198;6.592;2023-03-23T14:17:55;14.85;;;3.05;;
20482;SDS011;10400;53.198;6.592;2023-03-23T14:20:26;16.75;;;3.03;;
20482;SDS011;10400;53.198;6.592;2023-03-23T14:22:58;11.80;;;2.58;;
20482;SDS011;10400;53.198;6.592;2023-03-23T14:25:26;13.60;;;2.63;;
20482;SDS011;10400;53.198;6.592;2023-03-23T14:27:55;19.50;;;3.78;;
20482;SDS011;10400;53.198;6.592;2023-03-23T14:30:22;13.10;;;2.28;;
20482;SDS011;10400;53.198;6.592;2023-03-23T14:32:51;15.07;;;3.60;;
20482;SDS011;10400;53.198;6.592;2023-03-23T14:37:57;16.05;;;2.90;;
20482;SDS011;10400;53.198;6.592;2023-03-23T14:40:25;12.73;;;2.80;;
20482;SDS011;10400;53.198;6.592;2023-03-23T14:42:52;14.55;;;3.00;;
20482;SDS011;10400;53.198;6.592;2023-03-23T14:45:19;11.90;;;2.70;;
20482;SDS011;10400;53.198;6.592;2023-03-23T14:52:51;12.55;;;2.30;;
20482;SDS011;10400;53.198;6.592;2023-03-23T14:55:20;10.40;;;2.13;;
20482;SDS011;10400;53.198;6.592;2023-03-23T14:57:48;13.43;;;2.60;;
20482;SDS011;10400;53.198;6.592;2023-03-23T15:00:16;11.55;;;2.38;;
20482;SDS011;10400;53.198;6.592;2023-03-23T15:02:48;11.57;;;2.88;;
20482;SDS011;10400;53.198;6.592;2023-03-23T15:05:26;8.80;;;2.00;;
20482;SDS011;10400;53.198;6.592;2023-03-23T15:07:56;9.55;;;2.30;;
20482;SDS011;10400;53.198;6.592;2023-03-23T15:10:28;10.65;;;2.30;;
20482;SDS011;10400;53.198;6.592;2023-03-23T15:12:54;10.13;;;2.63;;
20482;SDS011;10400;53.198;6.592;2023-03-23T15:15:30;10.57;;;2.15;;
20482;SDS011;10400;53.198;6.592;2023-03-23T15:17:57;10.70;;;2.42;;
20482;SDS011;10400;53.198;6.592;2023-03-23T15:20:26;12.60;;;2.22;;
20482;SDS011;10400;53.198;6.592;2023-03-23T15:22:57;10.65;;;2.53;;
20482;SDS011;10400;53.198;6.592;2023-03-23T15:25:33;11.88;;;2.08;;
20482;SDS011;10400;53.198;6.592;2023-03-23T15:30:33;9.20;;;2.70;;
20482;SDS011;10400;53.198;6.592;2023-03-23T15:33:11;7.93;;;2.00;;
20482;SDS011;10400;53.198;6.592;2023-03-23T15:35:39;9.07;;;2.17;;
20482;SDS011;10400;53.198;6.592;2023-03-23T15:38:15;3.92;;;1.40;;
20482;SDS011;10400;53.198;6.592;2023-03-23T15:40:49;7.93;;;2.22;;
20482;SDS011;10400;53.198;6.592;2023-03-23T15:43:18;12.00;;;2.80;;
20482;SDS011;10400;53.198;6.592;2023-03-23T15:45:53;6.18;;;2.17;;
20482;SDS011;10400;53.198;6.592;2023-03-23T15:48:25;10.27;;;2.40;;
20482;SDS011;10400;53.198;6.592;2023-03-23T15:50:52;10.55;;;2.20;;
20482;SDS011;10400;53.198;6.592;2023-03-23T15:55:46;13.07;;;2.38;;
20482;SDS011;10400;53.198;6.592;2023-03-23T15:58:12;13.10;;;2.40;;
20482;SDS011;10400;53.198;6.592;2023-03-23T16:00:39;15.45;;;2.90;;
20482;SDS011;10400;53.198;6.592;2023-03-23T16:03:07;11.13;;;2.13;;
20482;SDS011;10400;53.198;6.592;2023-03-23T16:05:37;15.93;;;3.42;;
20482;SDS011;10400;53.198;6.592;2023-03-23T16:08:03;12.40;;;3.03;;
20482;SDS011;10400;53.198;6.592;2023-03-23T16:10:29;18.05;;;2.85;;
20482;SDS011;10400;53.198;6.592;2023-03-23T16:12:55;17.25;;;3.30;;
20482;SDS011;10400;53.198;6.592;2023-03-23T16:15:20;20.08;;;3.00;;
20482;SDS011;10400;53.198;6.592;2023-03-23T16:17:46;14.60;;;2.70;;
20482;SDS011;10400;53.198;6.592;2023-03-23T16:20:16;14.20;;;2.95;;
20482;SDS011;10400;53.198;6.592;2023-03-23T16:22:44;13.07;;;2.65;;
20482;SDS011;10400;53.198;6.592;2023-03-23T16:25:10;13.50;;;3.25;;
20482;SDS011;10400;53.198;6.592;2023-03-23T16:27:37;13.80;;;2.95;;
20482;SDS011;10400;53.198;6.592;2023-03-23T16:30:26;17.23;;;3.08;;
20482;SDS011;10400;53.198;6.592;2023-03-23T16:32:51;18.58;;;3.15;;
20482;SDS011;10400;53.198;6.592;2023-03-23T16:35:17;18.90;;;3.45;;
20482;SDS011;10400;53.198;6.592;2023-03-23T16:37:44;13.45;;;3.63;;
20482;SDS011;10400;53.198;6.592;2023-03-23T16:40:15;18.02;;;3.13;;
20482;SDS011;10400;53.198;6.592;2023-03-23T16:42:42;18.25;;;3.17;;
20482;SDS011;10400;53.198;6.592;2023-03-23T16:45:09;14.27;;;3.33;;
20482;SDS011;10400;53.198;6.592;2023-03-23T16:47:35;17.67;;;3.38;;
20482;SDS011;10400;53.198;6.592;2023-03-23T16:50:01;16.38;;;3.30;;